sensor_id;sensor_type;location;lat;lon;timestamp;temperature;humidity
47757;SHT35;22147;52.388;13.390;2022-12-16T00:01:53;-8.12;88.47
47757;SHT35;22147;52.388;13.390;2022-12-16T00:04:23;-8.12;88.26
47757;SHT35;22147;52.388;13.390;2022-12-16T00:06:53;-8.15;88.28
47757;SHT35;22147;52.388;13.390;2022-12-16T00:09:23;-8.15;88.24
47757;SHT35;22147;52.388;13.390;2022-12-16T00:11:53;-8.15;88.22
47757;SHT35;22147;52.388;13.390;2022-12-16T00:14:23;-8.18;88.14
47757;SHT35;22147;52.388;13.390;2022-12-16T00:16:53;-8.12;88.11
47757;SHT35;22147;52.388;13.390;2022-12-16T00:19:23;-8.15;88.01
47757;SHT35;22147;52.388;13.390;2022-12-16T00:21:53;-8.19;88.11
47757;SHT35;22147;52.388;13.390;2022-12-16T00:24:23;-8.20;88.22
47757;SHT35;22147;52.388;13.390;2022-12-16T00:26:53;-8.20;88.29
47757;SHT35;22147;52.388;13.390;2022-12-16T00:29:23;-8.25;88.36
47757;SHT35;22147;52.388;13.390;2022-12-16T00:31:53;-8.30;88.38
47757;SHT35;22147;52.388;13.390;2022-12-16T00:34:23;-8.30;88.42
47757;SHT35;22147;52.388;13.390;2022-12-16T00:36:52;-8.26;88.52
47757;SHT35;22147;52.388;13.390;2022-12-16T00:39:23;-8.27;88.62
47757;SHT35;22147;52.388;13.390;2022-12-16T00:41:52;-8.23;88.69
47757;SHT35;22147;52.388;13.390;2022-12-16T00:44:23;-8.23;88.73
47757;SHT35;22147;52.388;13.390;2022-12-16T00:46:53;-8.23;88.72
47757;SHT35;22147;52.388;13.390;2022-12-16T00:49:23;-8.22;88.67
47757;SHT35;22147;52.388;13.390;2022-12-16T00:51:53;-8.23;88.65
47757;SHT35;22147;52.388;13.390;2022-12-16T00:54:24;-8.20;88.63
47757;SHT35;22147;52.388;13.390;2022-12-16T00:56:52;-8.20;88.60
47757;SHT35;22147;52.388;13.390;2022-12-16T00:59:21;-8.25;88.51
47757;SHT35;22147;52.388;13.390;2022-12-16T01:01:49;-8.23;88.55
47757;SHT35;22147;52.388;13.390;2022-12-16T01:04:17;-8.22;88.59
47757;SHT35;22147;52.388;13.390;2022-12-16T01:06:46;-8.23;88.58
47757;SHT35;22147;52.388;13.390;2022-12-16T01:09:14;-8.23;88.60
47757;SHT35;22147;52.388;13.390;2022-12-16T01:11:43;-8.20;88.60
47757;SHT35;22147;52.388;13.390;2022-12-16T01:14:10;-8.23;88.66
47757;SHT35;22147;52.388;13.390;2022-12-16T01:16:39;-8.20;88.76
47757;SHT35;22147;52.388;13.390;2022-12-16T01:19:07;-8.19;88.96
47757;SHT35;22147;52.388;13.390;2022-12-16T01:21:37;-8.20;88.99
47757;SHT35;22147;52.388;13.390;2022-12-16T01:24:10;-8.23;89.05
47757;SHT35;22147;52.388;13.390;2022-12-16T01:26:40;-8.23;89.10
47757;SHT35;22147;52.388;13.390;2022-12-16T01:29:10;-8.25;89.14
47757;SHT35;22147;52.388;13.390;2022-12-16T01:31:40;-8.27;89.13
47757;SHT35;22147;52.388;13.390;2022-12-16T01:34:10;-8.27;89.13
47757;SHT35;22147;52.388;13.390;2022-12-16T01:36:40;-8.27;89.11
47757;SHT35;22147;52.388;13.390;2022-12-16T01:39:11;-8.27;89.17
47757;SHT35;22147;52.388;13.390;2022-12-16T01:41:41;-8.26;89.14
47757;SHT35;22147;52.388;13.390;2022-12-16T01:44:29;-8.29;89.11
47757;SHT35;22147;52.388;13.390;2022-12-16T01:47:05;-8.27;89.07
47757;SHT35;22147;52.388;13.390;2022-12-16T01:49:43;-8.23;89.22
47757;SHT35;22147;52.388;13.390;2022-12-16T01:52:28;-8.25;89.25
47757;SHT35;22147;52.388;13.390;2022-12-16T01:55:13;-8.23;89.26
47757;SHT35;22147;52.388;13.390;2022-12-16T01:58:01;-8.27;89.28
47757;SHT35;22147;52.388;13.390;2022-12-16T02:00:37;-8.29;89.27
47757;SHT35;22147;52.388;13.390;2022-12-16T02:03:10;-8.30;89.28
47757;SHT35;22147;52.388;13.390;2022-12-16T02:05:44;-8.27;89.30
47757;SHT35;22147;52.388;13.390;2022-12-16T02:08:18;-8.30;89.34
47757;SHT35;22147;52.388;13.390;2022-12-16T02:22:26;-8.36;89.41
47757;SHT35;22147;52.388;13.390;2022-12-16T02:25:25;-8.36;89.44
47757;SHT35;22147;52.388;13.390;2022-12-16T02:31:57;-8.36;89.55
47757;SHT35;22147;52.388;13.390;2022-12-16T02:35:19;-8.32;89.63
47757;SHT35;22147;52.388;13.390;2022-12-16T02:38:16;-8.30;89.60
47757;SHT35;22147;52.388;13.390;2022-12-16T02:41:11;-8.33;89.51
47757;SHT35;22147;52.388;13.390;2022-12-16T02:44:10;-8.34;89.43
47757;SHT35;22147;52.388;13.390;2022-12-16T02:46:52;-8.34;89.39
47757;SHT35;22147;52.388;13.390;2022-12-16T02:51:59;-8.37;89.16
47757;SHT35;22147;52.388;13.390;2022-12-16T02:54:31;-8.37;89.14
47757;SHT35;22147;52.388;13.390;2022-12-16T03:00:19;-8.40;88.96
47757;SHT35;22147;52.388;13.390;2022-12-16T03:02:58;-8.43;88.88
47757;SHT35;22147;52.388;13.390;2022-12-16T03:05:43;-8.43;88.81
47757;SHT35;22147;52.388;13.390;2022-12-16T03:08:34;-8.44;88.84
47757;SHT35;22147;52.388;13.390;2022-12-16T03:11:06;-8.46;88.85
47757;SHT35;22147;52.388;13.390;2022-12-16T03:13:52;-8.46;88.77
47757;SHT35;22147;52.388;13.390;2022-12-16T03:16:30;-8.48;88.73
47757;SHT35;22147;52.388;13.390;2022-12-16T03:19:09;-8.50;88.66
47757;SHT35;22147;52.388;13.390;2022-12-16T03:22:00;-8.51;88.56
47757;SHT35;22147;52.388;13.390;2022-12-16T03:24:32;-8.48;88.58
47757;SHT35;22147;52.388;13.390;2022-12-16T03:27:45;-8.53;88.56
47757;SHT35;22147;52.388;13.390;2022-12-16T03:30:25;-8.53;88.50
47757;SHT35;22147;52.388;13.390;2022-12-16T03:33:17;-8.56;88.43
47757;SHT35;22147;52.388;13.390;2022-12-16T03:36:19;-8.53;88.42
47757;SHT35;22147;52.388;13.390;2022-12-16T03:38:50;-8.54;88.43
47757;SHT35;22147;52.388;13.390;2022-12-16T03:41:25;-8.58;88.38
47757;SHT35;22147;52.388;13.390;2022-12-16T03:43:55;-8.58;88.34
47757;SHT35;22147;52.388;13.390;2022-12-16T03:46:26;-8.61;88.32
47757;SHT35;22147;52.388;13.390;2022-12-16T03:48:56;-8.60;88.30
47757;SHT35;22147;52.388;13.390;2022-12-16T03:51:26;-8.58;88.35
47757;SHT35;22147;52.388;13.390;2022-12-16T03:53:56;-8.60;88.39
47757;SHT35;22147;52.388;13.390;2022-12-16T03:56:27;-8.61;88.37
47757;SHT35;22147;52.388;13.390;2022-12-16T03:58:57;-8.60;88.37
47757;SHT35;22147;52.388;13.390;2022-12-16T04:01:27;-8.62;88.33
47757;SHT35;22147;52.388;13.390;2022-12-16T04:03:57;-8.61;88.33
47757;SHT35;22147;52.388;13.390;2022-12-16T04:06:28;-8.65;88.30
47757;SHT35;22147;52.388;13.390;2022-12-16T04:09:01;-8.62;88.31
47757;SHT35;22147;52.388;13.390;2022-12-16T04:11:31;-8.67;88.32
47757;SHT35;22147;52.388;13.390;2022-12-16T04:14:20;-8.62;88.35
47757;SHT35;22147;52.388;13.390;2022-12-16T04:17:21;-8.65;88.23
47757;SHT35;22147;52.388;13.390;2022-12-16T04:20:18;-8.69;88.23
47757;SHT35;22147;52.388;13.390;2022-12-16T04:23:08;-8.71;88.25
47757;SHT35;22147;52.388;13.390;2022-12-16T04:25:58;-8.68;88.33
47757;SHT35;22147;52.388;13.390;2022-12-16T04:28:28;-8.69;88.36
47757;SHT35;22147;52.388;13.390;2022-12-16T04:30:59;-8.69;88.38
47757;SHT35;22147;52.388;13.390;2022-12-16T04:33:30;-8.69;88.34
47757;SHT35;22147;52.388;13.390;2022-12-16T04:36:19;-8.74;88.39
47757;SHT35;22147;52.388;13.390;2022-12-16T04:39:08;-8.71;88.38
47757;SHT35;22147;52.388;13.390;2022-12-16T04:41:56;-8.72;88.31
47757;SHT35;22147;52.388;13.390;2022-12-16T04:44:46;-8.78;88.24
47757;SHT35;22147;52.388;13.390;2022-12-16T04:47:34;-8.77;88.25
47757;SHT35;22147;52.388;13.390;2022-12-16T04:50:26;-8.80;88.17
47757;SHT35;22147;52.388;13.390;2022-12-16T04:53:15;-8.80;88.09
47757;SHT35;22147;52.388;13.390;2022-12-16T04:56:04;-8.81;88.11
47757;SHT35;22147;52.388;13.390;2022-12-16T04:58:53;-8.83;88.06
47757;SHT35;22147;52.388;13.390;2022-12-16T05:01:43;-8.80;88.05
47757;SHT35;22147;52.388;13.390;2022-12-16T05:04:32;-8.81;88.03
47757;SHT35;22147;52.388;13.390;2022-12-16T05:07:20;-8.81;87.98
47757;SHT35;22147;52.388;13.390;2022-12-16T05:10:09;-8.83;87.98
47757;SHT35;22147;52.388;13.390;2022-12-16T05:12:57;-8.81;87.95
47757;SHT35;22147;52.388;13.390;2022-12-16T05:15:46;-8.80;87.91
47757;SHT35;22147;52.388;13.390;2022-12-16T05:18:35;-8.83;87.72
47757;SHT35;22147;52.388;13.390;2022-12-16T05:21:23;-8.87;87.62
47757;SHT35;22147;52.388;13.390;2022-12-16T05:24:12;-8.87;87.64
47757;SHT35;22147;52.388;13.390;2022-12-16T05:27:00;-8.85;87.70
47757;SHT35;22147;52.388;13.390;2022-12-16T05:29:47;-8.88;87.72
47757;SHT35;22147;52.388;13.390;2022-12-16T05:32:34;-8.85;87.72
47757;SHT35;22147;52.388;13.390;2022-12-16T05:35:24;-8.87;87.84
47757;SHT35;22147;52.388;13.390;2022-12-16T05:38:13;-8.84;87.89
47757;SHT35;22147;52.388;13.390;2022-12-16T05:41:01;-8.85;87.81
47757;SHT35;22147;52.388;13.390;2022-12-16T05:43:50;-8.85;87.78
47757;SHT35;22147;52.388;13.390;2022-12-16T05:46:38;-8.85;87.84
47757;SHT35;22147;52.388;13.390;2022-12-16T05:49:27;-8.88;87.87
47757;SHT35;22147;52.388;13.390;2022-12-16T05:52:16;-8.88;87.90
47757;SHT35;22147;52.388;13.390;2022-12-16T05:55:05;-8.89;87.96
47757;SHT35;22147;52.388;13.390;2022-12-16T05:58:02;-8.87;88.14
47757;SHT35;22147;52.388;13.390;2022-12-16T06:00:51;-8.88;88.19
47757;SHT35;22147;52.388;13.390;2022-12-16T06:03:39;-8.87;88.21
47757;SHT35;22147;52.388;13.390;2022-12-16T06:06:28;-8.88;88.19
47757;SHT35;22147;52.388;13.390;2022-12-16T06:09:17;-8.87;88.15
47757;SHT35;22147;52.388;13.390;2022-12-16T06:12:06;-8.85;88.08
47757;SHT35;22147;52.388;13.390;2022-12-16T06:14:56;-8.87;88.01
47757;SHT35;22147;52.388;13.390;2022-12-16T06:17:49;-8.85;87.92
47757;SHT35;22147;52.388;13.390;2022-12-16T06:20:38;-8.88;87.89
47757;SHT35;22147;52.388;13.390;2022-12-16T06:23:27;-8.88;87.87
47757;SHT35;22147;52.388;13.390;2022-12-16T06:26:16;-8.89;87.79
47757;SHT35;22147;52.388;13.390;2022-12-16T06:29:02;-8.87;87.72
47757;SHT35;22147;52.388;13.390;2022-12-16T06:31:50;-8.91;87.69
47757;SHT35;22147;52.388;13.390;2022-12-16T06:34:39;-8.89;87.62
47757;SHT35;22147;52.388;13.390;2022-12-16T06:37:28;-8.89;87.64
47757;SHT35;22147;52.388;13.390;2022-12-16T06:40:16;-8.94;87.58
47757;SHT35;22147;52.388;13.390;2022-12-16T06:43:05;-8.92;87.62
47757;SHT35;22147;52.388;13.390;2022-12-16T06:45:51;-8.92;87.54
47757;SHT35;22147;52.388;13.390;2022-12-16T06:48:39;-8.94;87.50
47757;SHT35;22147;52.388;13.390;2022-12-16T06:51:28;-8.94;87.43
47757;SHT35;22147;52.388;13.390;2022-12-16T06:54:16;-8.96;87.38
47757;SHT35;22147;52.388;13.390;2022-12-16T06:57:05;-8.96;87.39
47757;SHT35;22147;52.388;13.390;2022-12-16T06:59:54;-8.94;87.48
47757;SHT35;22147;52.388;13.390;2022-12-16T07:02:42;-8.92;87.52
47757;SHT35;22147;52.388;13.390;2022-12-16T07:05:31;-8.95;87.54
47757;SHT35;22147;52.388;13.390;2022-12-16T07:08:19;-8.94;87.47
47757;SHT35;22147;52.388;13.390;2022-12-16T07:11:07;-8.95;87.48
47757;SHT35;22147;52.388;13.390;2022-12-16T07:13:56;-8.92;87.49
47757;SHT35;22147;52.388;13.390;2022-12-16T07:16:45;-8.92;87.49
47757;SHT35;22147;52.388;13.390;2022-12-16T07:19:33;-8.91;87.49
47757;SHT35;22147;52.388;13.390;2022-12-16T07:22:22;-8.88;87.45
47757;SHT35;22147;52.388;13.390;2022-12-16T07:25:10;-8.87;87.42
47757;SHT35;22147;52.388;13.390;2022-12-16T07:27:57;-8.87;87.41
47757;SHT35;22147;52.388;13.390;2022-12-16T07:30:46;-8.88;87.36
47757;SHT35;22147;52.388;13.390;2022-12-16T07:33:34;-8.85;87.33
47757;SHT35;22147;52.388;13.390;2022-12-16T07:36:23;-8.85;87.28
47757;SHT35;22147;52.388;13.390;2022-12-16T07:39:11;-8.88;87.21
47757;SHT35;22147;52.388;13.390;2022-12-16T07:42:00;-8.89;87.24
47757;SHT35;22147;52.388;13.390;2022-12-16T07:44:49;-8.92;87.27
47757;SHT35;22147;52.388;13.390;2022-12-16T07:47:45;-8.88;87.33
47757;SHT35;22147;52.388;13.390;2022-12-16T07:50:38;-8.83;87.37
47757;SHT35;22147;52.388;13.390;2022-12-16T07:53:27;-8.84;87.18
47757;SHT35;22147;52.388;13.390;2022-12-16T07:56:16;-8.77;87.31
47757;SHT35;22147;52.388;13.390;2022-12-16T07:59:04;-8.68;87.29
47757;SHT35;22147;52.388;13.390;2022-12-16T08:01:53;-8.64;87.30
47757;SHT35;22147;52.388;13.390;2022-12-16T08:04:42;-8.58;87.17
47757;SHT35;22147;52.388;13.390;2022-12-16T08:07:30;-8.57;87.08
47757;SHT35;22147;52.388;13.390;2022-12-16T08:10:18;-8.51;87.07
47757;SHT35;22147;52.388;13.390;2022-12-16T08:13:07;-8.48;87.17
47757;SHT35;22147;52.388;13.390;2022-12-16T08:15:56;-8.41;87.27
47757;SHT35;22147;52.388;13.390;2022-12-16T08:18:44;-8.34;87.30
47757;SHT35;22147;52.388;13.390;2022-12-16T08:21:39;-8.29;87.35
47757;SHT35;22147;52.388;13.390;2022-12-16T08:24:28;-8.16;87.35
47757;SHT35;22147;52.388;13.390;2022-12-16T08:27:36;-8.10;87.33
47757;SHT35;22147;52.388;13.390;2022-12-16T08:30:39;-8.02;87.31
47757;SHT35;22147;52.388;13.390;2022-12-16T08:33:28;-7.89;87.35
47757;SHT35;22147;52.388;13.390;2022-12-16T08:36:17;-7.82;87.36
47757;SHT35;22147;52.388;13.390;2022-12-16T08:39:05;-7.79;87.38
47757;SHT35;22147;52.388;13.390;2022-12-16T08:41:54;-7.79;87.48
47757;SHT35;22147;52.388;13.390;2022-12-16T08:44:44;-7.73;87.58
47757;SHT35;22147;52.388;13.390;2022-12-16T08:47:33;-7.65;87.75
47757;SHT35;22147;52.388;13.390;2022-12-16T08:50:22;-7.57;88.05
47757;SHT35;22147;52.388;13.390;2022-12-16T08:53:10;-7.47;88.36
47757;SHT35;22147;52.388;13.390;2022-12-16T08:56:00;-7.46;88.49
47757;SHT35;22147;52.388;13.390;2022-12-16T08:58:48;-7.40;88.61
47757;SHT35;22147;52.388;13.390;2022-12-16T09:01:37;-7.37;88.58
47757;SHT35;22147;52.388;13.390;2022-12-16T09:04:26;-7.31;88.54
47757;SHT35;22147;52.388;13.390;2022-12-16T09:07:12;-7.34;88.69
47757;SHT35;22147;52.388;13.390;2022-12-16T09:10:01;-7.27;88.94
47757;SHT35;22147;52.388;13.390;2022-12-16T09:12:50;-7.19;89.05
47757;SHT35;22147;52.388;13.390;2022-12-16T09:15:39;-7.12;89.03
47757;SHT35;22147;52.388;13.390;2022-12-16T09:18:28;-6.98;89.04
47757;SHT35;22147;52.388;13.390;2022-12-16T09:21:16;-6.87;88.92
47757;SHT35;22147;52.388;13.390;2022-12-16T09:24:05;-6.78;88.96
47757;SHT35;22147;52.388;13.390;2022-12-16T09:26:54;-6.57;88.96
47757;SHT35;22147;52.388;13.390;2022-12-16T09:29:43;-6.36;89.00
47757;SHT35;22147;52.388;13.390;2022-12-16T09:32:33;-6.03;89.06
47757;SHT35;22147;52.388;13.390;2022-12-16T09:35:23;-5.70;89.02
47757;SHT35;22147;52.388;13.390;2022-12-16T09:38:12;-5.31;88.64
47757;SHT35;22147;52.388;13.390;2022-12-16T09:51:12;-3.89;85.51
47757;SHT35;22147;52.388;13.390;2022-12-16T09:54:03;-3.75;85.01
47757;SHT35;22147;52.388;13.390;2022-12-16T09:56:52;-3.58;85.07
47757;SHT35;22147;52.388;13.390;2022-12-16T09:59:54;-3.54;84.50
47757;SHT35;22147;52.388;13.390;2022-12-16T10:02:49;-3.45;84.27
47757;SHT35;22147;52.388;13.390;2022-12-16T10:20:32;-3.26;83.65
47757;SHT35;22147;52.388;13.390;2022-12-16T10:27:20;-3.56;84.21
47757;SHT35;22147;52.388;13.390;2022-12-16T10:30:13;-3.33;84.54
47757;SHT35;22147;52.388;13.390;2022-12-16T10:33:13;-3.11;84.42
47757;SHT35;22147;52.388;13.390;2022-12-16T10:36:20;-2.99;83.73
47757;SHT35;22147;52.388;13.390;2022-12-16T10:39:59;-2.73;83.12
47757;SHT35;22147;52.388;13.390;2022-12-16T10:43:14;-2.66;83.21
47757;SHT35;22147;52.388;13.390;2022-12-16T10:46:19;-2.48;83.32
47757;SHT35;22147;52.388;13.390;2022-12-16T10:49:15;-2.30;82.94
47757;SHT35;22147;52.388;13.390;2022-12-16T10:52:05;-2.30;82.08
47757;SHT35;22147;52.388;13.390;2022-12-16T10:58:46;-2.24;81.94
47757;SHT35;22147;52.388;13.390;2022-12-16T11:01:39;-2.07;81.80
47757;SHT35;22147;52.388;13.390;2022-12-16T11:04:37;-1.85;81.51
47757;SHT35;22147;52.388;13.390;2022-12-16T11:10:42;-1.90;81.07
47757;SHT35;22147;52.388;13.390;2022-12-16T11:13:36;-1.70;80.96
47757;SHT35;22147;52.388;13.390;2022-12-16T11:16:28;-1.55;81.42
47757;SHT35;22147;52.388;13.390;2022-12-16T11:19:29;-1.47;81.51
47757;SHT35;22147;52.388;13.390;2022-12-16T11:22:22;-1.51;80.99
47757;SHT35;22147;52.388;13.390;2022-12-16T11:25:20;-1.38;81.34
47757;SHT35;22147;52.388;13.390;2022-12-16T11:28:17;-1.32;80.74
47757;SHT35;22147;52.388;13.390;2022-12-16T11:31:13;-1.12;80.92
47757;SHT35;22147;52.388;13.390;2022-12-16T11:34:04;-1.35;79.89
47757;SHT35;22147;52.388;13.390;2022-12-16T11:36:54;-1.24;80.93
47757;SHT35;22147;52.388;13.390;2022-12-16T11:39:52;-1.17;80.13
47757;SHT35;22147;52.388;13.390;2022-12-16T11:42:40;-1.31;79.87
47757;SHT35;22147;52.388;13.390;2022-12-16T11:45:43;-1.44;80.16
47757;SHT35;22147;52.388;13.390;2022-12-16T11:48:58;-1.41;80.18
47757;SHT35;22147;52.388;13.390;2022-12-16T11:52:03;-1.45;80.59
47757;SHT35;22147;52.388;13.390;2022-12-16T11:55:32;-1.20;80.39
47757;SHT35;22147;52.388;13.390;2022-12-16T11:59:00;-1.17;79.80
47757;SHT35;22147;52.388;13.390;2022-12-16T12:02:00;-1.01;79.89
47757;SHT35;22147;52.388;13.390;2022-12-16T12:04:50;-0.96;79.59
47757;SHT35;22147;52.388;13.390;2022-12-16T12:11:23;-1.14;79.12
47757;SHT35;22147;52.388;13.390;2022-12-16T12:18:28;-0.94;80.28
47757;SHT35;22147;52.388;13.390;2022-12-16T12:21:46;-0.76;79.85
47757;SHT35;22147;52.388;13.390;2022-12-16T12:25:52;-0.69;79.79
47757;SHT35;22147;52.388;13.390;2022-12-16T12:29:01;-0.82;79.56
47757;SHT35;22147;52.388;13.390;2022-12-16T12:32:41;-0.63;80.20
47757;SHT35;22147;52.388;13.390;2022-12-16T12:36:14;-0.55;79.60
47757;SHT35;22147;52.388;13.390;2022-12-16T12:39:56;-0.42;79.91
47757;SHT35;22147;52.388;13.390;2022-12-16T12:42:54;-0.55;78.95
47757;SHT35;22147;52.388;13.390;2022-12-16T12:49:36;-0.66;79.87
47757;SHT35;22147;52.388;13.390;2022-12-16T12:53:21;-0.73;80.19
47757;SHT35;22147;52.388;13.390;2022-12-16T12:56:26;-0.66;79.76
47757;SHT35;22147;52.388;13.390;2022-12-16T13:05:48;-0.69;80.03
47757;SHT35;22147;52.388;13.390;2022-12-16T13:08:56;-0.74;80.18
47757;SHT35;22147;52.388;13.390;2022-12-16T13:20:57;-0.77;80.30
47757;SHT35;22147;52.388;13.390;2022-12-16T13:23:46;-0.70;80.46
47757;SHT35;22147;52.388;13.390;2022-12-16T13:26:35;-0.79;80.77
47757;SHT35;22147;52.388;13.390;2022-12-16T13:29:29;-0.83;81.08
47757;SHT35;22147;52.388;13.390;2022-12-16T13:32:24;-0.72;81.12
47757;SHT35;22147;52.388;13.390;2022-12-16T13:35:17;-0.76;81.22
47757;SHT35;22147;52.388;13.390;2022-12-16T13:38:20;-0.86;81.23
47757;SHT35;22147;52.388;13.390;2022-12-16T13:41:45;-0.84;81.60
47757;SHT35;22147;52.388;13.390;2022-12-16T13:50:49;-0.89;81.90
47757;SHT35;22147;52.388;13.390;2022-12-16T13:53:52;-0.91;81.72
47757;SHT35;22147;52.388;13.390;2022-12-16T13:56:48;-0.94;82.25
47757;SHT35;22147;52.388;13.390;2022-12-16T13:59:40;-0.93;82.28
47757;SHT35;22147;52.388;13.390;2022-12-16T14:02:42;-0.94;82.40
47757;SHT35;22147;52.388;13.390;2022-12-16T14:05:41;-0.90;82.56
47757;SHT35;22147;52.388;13.390;2022-12-16T14:08:37;-0.97;82.41
47757;SHT35;22147;52.388;13.390;2022-12-16T14:11:57;-0.97;82.66
47757;SHT35;22147;52.388;13.390;2022-12-16T14:15:10;-0.94;82.91
47757;SHT35;22147;52.388;13.390;2022-12-16T14:18:42;-1.07;82.92
47757;SHT35;22147;52.388;13.390;2022-12-16T14:25:28;-1.10;83.62
47757;SHT35;22147;52.388;13.390;2022-12-16T14:28:38;-1.12;83.63
47757;SHT35;22147;52.388;13.390;2022-12-16T14:31:48;-1.12;83.68
47757;SHT35;22147;52.388;13.390;2022-12-16T14:34:36;-1.17;83.85
47757;SHT35;22147;52.388;13.390;2022-12-16T14:37:37;-1.25;83.96
47757;SHT35;22147;52.388;13.390;2022-12-16T14:40:32;-1.25;83.95
47757;SHT35;22147;52.388;13.390;2022-12-16T14:43:24;-1.25;83.92
47757;SHT35;22147;52.388;13.390;2022-12-16T14:46:30;-1.30;83.69
47757;SHT35;22147;52.388;13.390;2022-12-16T14:49:29;-1.34;83.79
47757;SHT35;22147;52.388;13.390;2022-12-16T14:52:24;-1.38;83.93
47757;SHT35;22147;52.388;13.390;2022-12-16T14:55:28;-1.38;83.69
47757;SHT35;22147;52.388;13.390;2022-12-16T14:58:23;-1.35;83.60
47757;SHT35;22147;52.388;13.390;2022-12-16T15:01:21;-1.38;83.50
47757;SHT35;22147;52.388;13.390;2022-12-16T15:04:21;-1.44;83.54
47757;SHT35;22147;52.388;13.390;2022-12-16T15:07:14;-1.47;83.85
47757;SHT35;22147;52.388;13.390;2022-12-16T15:10:03;-1.47;83.70
47757;SHT35;22147;52.388;13.390;2022-12-16T15:12:51;-1.52;83.15
47757;SHT35;22147;52.388;13.390;2022-12-16T15:15:49;-1.47;83.13
47757;SHT35;22147;52.388;13.390;2022-12-16T15:18:45;-1.44;82.40
47757;SHT35;22147;52.388;13.390;2022-12-16T15:21:36;-1.48;82.47
47757;SHT35;22147;52.388;13.390;2022-12-16T15:24:27;-1.49;82.76
47757;SHT35;22147;52.388;13.390;2022-12-16T15:30:41;-1.58;82.57
47757;SHT35;22147;52.388;13.390;2022-12-16T15:33:36;-1.56;82.56
47757;SHT35;22147;52.388;13.390;2022-12-16T15:36:35;-1.59;82.65
47757;SHT35;22147;52.388;13.390;2022-12-16T15:39:40;-1.59;82.55
47757;SHT35;22147;52.388;13.390;2022-12-16T15:42:32;-1.62;82.35
47757;SHT35;22147;52.388;13.390;2022-12-16T15:45:31;-1.60;82.64
47757;SHT35;22147;52.388;13.390;2022-12-16T15:48:32;-1.62;82.77
47757;SHT35;22147;52.388;13.390;2022-12-16T15:54:22;-1.66;82.78
47757;SHT35;22147;52.388;13.390;2022-12-16T15:57:35;-1.63;82.85
47757;SHT35;22147;52.388;13.390;2022-12-16T16:00:30;-1.65;82.45
47757;SHT35;22147;52.388;13.390;2022-12-16T16:03:39;-1.70;81.63
47757;SHT35;22147;52.388;13.390;2022-12-16T16:06:35;-1.72;82.30
47757;SHT35;22147;52.388;13.390;2022-12-16T16:09:32;-1.68;82.20
47757;SHT35;22147;52.388;13.390;2022-12-16T16:12:24;-1.73;82.03
47757;SHT35;22147;52.388;13.390;2022-12-16T16:15:14;-1.72;81.81
47757;SHT35;22147;52.388;13.390;2022-12-16T16:18:05;-1.69;81.94
47757;SHT35;22147;52.388;13.390;2022-12-16T16:20:53;-1.70;82.08
47757;SHT35;22147;52.388;13.390;2022-12-16T16:23:42;-1.73;81.96
47757;SHT35;22147;52.388;13.390;2022-12-16T16:26:31;-1.73;82.13
47757;SHT35;22147;52.388;13.390;2022-12-16T16:29:19;-1.73;82.05
47757;SHT35;22147;52.388;13.390;2022-12-16T16:32:09;-1.75;82.01
47757;SHT35;22147;52.388;13.390;2022-12-16T16:34:57;-1.80;81.98
47757;SHT35;22147;52.388;13.390;2022-12-16T16:37:59;-1.78;82.11
47757;SHT35;22147;52.388;13.390;2022-12-16T16:40:48;-1.78;82.03
47757;SHT35;22147;52.388;13.390;2022-12-16T16:43:36;-1.80;82.21
47757;SHT35;22147;52.388;13.390;2022-12-16T16:46:39;-1.80;82.30
47757;SHT35;22147;52.388;13.390;2022-12-16T16:49:55;-1.79;82.46
47757;SHT35;22147;52.388;13.390;2022-12-16T16:52:48;-1.83;82.45
47757;SHT35;22147;52.388;13.390;2022-12-16T16:55:37;-1.87;82.35
47757;SHT35;22147;52.388;13.390;2022-12-16T16:58:30;-1.85;82.59
47757;SHT35;22147;52.388;13.390;2022-12-16T17:01:21;-1.87;82.76
47757;SHT35;22147;52.388;13.390;2022-12-16T17:04:09;-1.87;82.86
47757;SHT35;22147;52.388;13.390;2022-12-16T17:06:58;-1.91;83.08
47757;SHT35;22147;52.388;13.390;2022-12-16T17:09:47;-1.90;82.56
47757;SHT35;22147;52.388;13.390;2022-12-16T17:12:35;-1.90;82.38
47757;SHT35;22147;52.388;13.390;2022-12-16T17:15:36;-1.91;82.38
47757;SHT35;22147;52.388;13.390;2022-12-16T17:18:25;-1.89;82.33
47757;SHT35;22147;52.388;13.390;2022-12-16T17:21:20;-1.93;82.46
47757;SHT35;22147;52.388;13.390;2022-12-16T17:24:09;-1.93;82.27
47757;SHT35;22147;52.388;13.390;2022-12-16T17:27:19;-1.82;82.08
47757;SHT35;22147;52.388;13.390;2022-12-16T17:30:21;-1.89;82.08
47757;SHT35;22147;52.388;13.390;2022-12-16T17:33:16;-1.90;82.22
47757;SHT35;22147;52.388;13.390;2022-12-16T17:36:04;-1.91;82.32
47757;SHT35;22147;52.388;13.390;2022-12-16T17:38:59;-1.93;82.61
47757;SHT35;22147;52.388;13.390;2022-12-16T17:41:49;-1.96;82.42
47757;SHT35;22147;52.388;13.390;2022-12-16T17:44:38;-1.93;82.38
47757;SHT35;22147;52.388;13.390;2022-12-16T17:47:27;-1.93;82.56
47757;SHT35;22147;52.388;13.390;2022-12-16T17:50:16;-1.90;82.79
47757;SHT35;22147;52.388;13.390;2022-12-16T17:53:06;-1.91;82.87
47757;SHT35;22147;52.388;13.390;2022-12-16T17:55:54;-1.87;82.91
47757;SHT35;22147;52.388;13.390;2022-12-16T17:58:42;-1.90;82.85
47757;SHT35;22147;52.388;13.390;2022-12-16T18:01:34;-1.89;82.84
47757;SHT35;22147;52.388;13.390;2022-12-16T18:04:23;-1.94;83.18
47757;SHT35;22147;52.388;13.390;2022-12-16T18:07:11;-1.93;83.12
47757;SHT35;22147;52.388;13.390;2022-12-16T18:10:00;-1.94;83.03
47757;SHT35;22147;52.388;13.390;2022-12-16T18:12:49;-1.94;83.15
47757;SHT35;22147;52.388;13.390;2022-12-16T18:15:37;-1.96;83.23
47757;SHT35;22147;52.388;13.390;2022-12-16T18:18:26;-1.97;83.46
47757;SHT35;22147;52.388;13.390;2022-12-16T18:21:15;-1.97;83.53
47757;SHT35;22147;52.388;13.390;2022-12-16T18:24:08;-1.99;83.41
47757;SHT35;22147;52.388;13.390;2022-12-16T18:26:57;-1.97;83.17
47757;SHT35;22147;52.388;13.390;2022-12-16T18:29:46;-1.97;83.37
47757;SHT35;22147;52.388;13.390;2022-12-16T18:32:36;-1.97;83.61
47757;SHT35;22147;52.388;13.390;2022-12-16T18:35:25;-1.97;83.65
47757;SHT35;22147;52.388;13.390;2022-12-16T18:38:14;-1.97;83.67
47757;SHT35;22147;52.388;13.390;2022-12-16T18:41:13;-1.99;83.75
47757;SHT35;22147;52.388;13.390;2022-12-16T18:44:05;-2.00;83.79
47757;SHT35;22147;52.388;13.390;2022-12-16T18:46:54;-1.99;83.66
47757;SHT35;22147;52.388;13.390;2022-12-16T18:49:43;-2.00;83.76
47757;SHT35;22147;52.388;13.390;2022-12-16T18:52:31;-2.00;83.80
47757;SHT35;22147;52.388;13.390;2022-12-16T18:55:20;-2.00;84.12
47757;SHT35;22147;52.388;13.390;2022-12-16T18:58:09;-1.96;84.09
47757;SHT35;22147;52.388;13.390;2022-12-16T19:01:18;-1.96;84.00
47757;SHT35;22147;52.388;13.390;2022-12-16T19:04:07;-1.96;84.03
47757;SHT35;22147;52.388;13.390;2022-12-16T19:06:55;-2.01;84.14
47757;SHT35;22147;52.388;13.390;2022-12-16T19:09:44;-2.00;84.28
47757;SHT35;22147;52.388;13.390;2022-12-16T19:12:31;-2.01;84.30
47757;SHT35;22147;52.388;13.390;2022-12-16T19:15:19;-2.03;84.38